Terminal Aerodrome Forecast
Issued by NWS

Home | Current Version | Previous Version | Text Only | Print | Product List | Glossary On
Versions: 1 2 3 4 5 6 7 8 9 10 11 12 13 14 15 16 17 18
000
FTAK31 PANC 011129
TAFADL
TAF
PADL 011129Z 0112/0212 VRB04KT P6SM SCT035 BKN080
     FM012100 VRB05KT P6SM VCSH SCT040 BKN070
     FM020000 23006KT P6SM -SHRA SCT030 OVC050
     FM020600 15005KT P6SM VCSH SCT030 BKN060=

USA.gov is the U.S. government's official web portal to all federal, state and local government web resources and services.